sensor_id;sensor_type;location;lat;lon;timestamp;pressure;altitude;pressure_sealevel;temperature;humidity
7918;BME280;4004;42.624;23.386;2022-11-03T00:00:55;94674.06;;;15.05;45.14
7918;BME280;4004;42.624;23.386;2022-11-03T00:03:22;94676.06;;;15.08;45.32
7918;BME280;4004;42.624;23.386;2022-11-03T00:05:50;94678.28;;;14.99;45.35
7918;BME280;4004;42.624;23.386;2022-11-03T00:08:38;94680.84;;;14.88;45.63
7918;BME280;4004;42.624;23.386;2022-11-03T00:11:10;94686.97;;;14.85;45.61
7918;BME280;4004;42.624;23.386;2022-11-03T00:13:38;94681.91;;;14.80;45.76
7918;BME280;4004;42.624;23.386;2022-11-03T00:16:06;94685.03;;;14.82;45.78
7918;BME280;4004;42.624;23.386;2022-11-03T00:18:33;94679.28;;;14.87;45.72
7918;BME280;4004;42.624;23.386;2022-11-03T00:21:02;94688.84;;;14.77;46.05
7918;BME280;4004;42.624;23.386;2022-11-03T00:23:32;94684.06;;;14.67;46.18
7918;BME280;4004;42.624;23.386;2022-11-03T00:26:08;94685.56;;;14.64;46.37
7918;BME280;4004;42.624;23.386;2022-11-03T00:28:36;94676.31;;;14.65;46.54
7918;BME280;4004;42.624;23.386;2022-11-03T00:31:06;94690.63;;;14.66;46.73
7918;BME280;4004;42.624;23.386;2022-11-03T00:33:34;94685.63;;;14.68;46.78
7918;BME280;4004;42.624;23.386;2022-11-03T00:36:03;94679.88;;;14.73;47.25
7918;BME280;4004;42.624;23.386;2022-11-03T00:38:31;94682.59;;;14.73;47.89
7918;BME280;4004;42.624;23.386;2022-11-03T00:40:59;94678.38;;;14.76;47.54
7918;BME280;4004;42.624;23.386;2022-11-03T00:43:28;94688.78;;;14.74;47.54
7918;BME280;4004;42.624;23.386;2022-11-03T00:45:55;94692.28;;;14.74;47.59
7918;BME280;4004;42.624;23.386;2022-11-03T00:48:23;94685.63;;;14.68;47.61
7918;BME280;4004;42.624;23.386;2022-11-03T00:51:00;94683.69;;;14.68;47.47
7918;BME280;4004;42.624;23.386;2022-11-03T00:53:29;94694.94;;;14.70;47.25
7918;BME280;4004;42.624;23.386;2022-11-03T00:55:56;94688.28;;;14.64;47.34
7918;BME280;4004;42.624;23.386;2022-11-03T00:58:23;94687.50;;;14.64;47.44
7918;BME280;4004;42.624;23.386;2022-11-03T01:00:50;94691.72;;;14.61;47.74
7918;BME280;4004;42.624;23.386;2022-11-03T01:03:17;94692.88;;;14.60;47.61
7918;BME280;4004;42.624;23.386;2022-11-03T01:05:43;94698.28;;;14.60;47.60
7918;BME280;4004;42.624;23.386;2022-11-03T01:08:33;94697.84;;;14.58;47.75
7918;BME280;4004;42.624;23.386;2022-11-03T01:11:07;94684.63;;;14.53;47.89
7918;BME280;4004;42.624;23.386;2022-11-03T01:13:51;94694.38;;;14.58;47.94
7918;BME280;4004;42.624;23.386;2022-11-03T01:16:18;94693.50;;;14.54;48.35
7918;BME280;4004;42.624;23.386;2022-11-03T01:18:45;94686.56;;;14.52;48.42
7918;BME280;4004;42.624;23.386;2022-11-03T01:21:11;94689.72;;;14.55;48.66
7918;BME280;4004;42.624;23.386;2022-11-03T01:23:40;94690.03;;;14.53;48.91
7918;BME280;4004;42.624;23.386;2022-11-03T01:26:09;94686.63;;;14.56;49.10
7918;BME280;4004;42.624;23.386;2022-11-03T01:28:36;94693.97;;;14.56;49.41
7918;BME280;4004;42.624;23.386;2022-11-03T01:31:04;94692.03;;;14.56;49.29
7918;BME280;4004;42.624;23.386;2022-11-03T01:33:31;94692.03;;;14.56;49.68
7918;BME280;4004;42.624;23.386;2022-11-03T01:35:58;94690.97;;;14.61;49.75
7918;BME280;4004;42.624;23.386;2022-11-03T01:38:25;94685.13;;;14.59;49.82
7918;BME280;4004;42.624;23.386;2022-11-03T01:40:53;94687.78;;;14.55;50.70
7918;BME280;4004;42.624;23.386;2022-11-03T01:43:21;94693.59;;;14.57;50.98
7918;BME280;4004;42.624;23.386;2022-11-03T01:45:50;94688.44;;;14.48;51.42
7918;BME280;4004;42.624;23.386;2022-11-03T01:48:20;94691.13;;;14.48;51.61
7918;BME280;4004;42.624;23.386;2022-11-03T01:50:48;94688.75;;;14.43;52.24
7918;BME280;4004;42.624;23.386;2022-11-03T01:53:17;94698.84;;;14.46;52.63
7918;BME280;4004;42.624;23.386;2022-11-03T01:55:46;94690.78;;;14.50;52.99
7918;BME280;4004;42.624;23.386;2022-11-03T01:58:17;94694.25;;;14.50;53.10
7918;BME280;4004;42.624;23.386;2022-11-03T02:00:47;94695.38;;;14.49;53.27
7918;BME280;4004;42.624;23.386;2022-11-03T02:03:14;94693.84;;;14.48;53.15
7918;BME280;4004;42.624;23.386;2022-11-03T02:05:42;94692.75;;;14.53;53.34
7918;BME280;4004;42.624;23.386;2022-11-03T02:08:14;94697.09;;;14.58;53.16
7918;BME280;4004;42.624;23.386;2022-11-03T02:10:42;94699.78;;;14.58;52.95
7918;BME280;4004;42.624;23.386;2022-11-03T02:13:17;94698.25;;;14.57;53.03
7918;BME280;4004;42.624;23.386;2022-11-03T02:15:45;94702.09;;;14.56;53.02
7918;BME280;4004;42.624;23.386;2022-11-03T02:18:13;94689.59;;;14.47;53.13
7918;BME280;4004;42.624;23.386;2022-11-03T02:20:42;94698.16;;;14.53;53.33
7918;BME280;4004;42.624;23.386;2022-11-03T02:23:18;94700.78;;;14.46;53.63
7918;BME280;4004;42.624;23.386;2022-11-03T02:25:47;94697.59;;;14.40;53.76
7918;BME280;4004;42.624;23.386;2022-11-03T02:28:18;94693.75;;;14.41;54.00
7918;BME280;4004;42.624;23.386;2022-11-03T02:30:50;94690.16;;;14.34;54.61
7918;BME280;4004;42.624;23.386;2022-11-03T02:33:26;94700.16;;;14.29;55.06
7918;BME280;4004;42.624;23.386;2022-11-03T02:35:58;94699.00;;;14.30;55.29
7918;BME280;4004;42.624;23.386;2022-11-03T02:38:29;94690.56;;;14.36;55.47
7918;BME280;4004;42.624;23.386;2022-11-03T02:41:02;94696.38;;;14.34;55.99
7918;BME280;4004;42.624;23.386;2022-11-03T02:43:32;94689.03;;;14.35;56.64
7918;BME280;4004;42.624;23.386;2022-11-03T02:46:00;94695.53;;;14.30;56.94
7918;BME280;4004;42.624;23.386;2022-11-03T02:48:29;94692.81;;;14.30;56.86
7918;BME280;4004;42.624;23.386;2022-11-03T02:50:56;94690.13;;;14.30;57.06
7918;BME280;4004;42.624;23.386;2022-11-03T02:53:23;94703.94;;;14.25;57.28
7918;BME280;4004;42.624;23.386;2022-11-03T02:55:59;94693.53;;;14.27;57.36
7918;BME280;4004;42.624;23.386;2022-11-03T02:58:33;94695.22;;;14.35;57.04
7918;BME280;4004;42.624;23.386;2022-11-03T03:01:06;94699.50;;;14.36;56.82
7918;BME280;4004;42.624;23.386;2022-11-03T03:03:41;94699.75;;;14.27;57.18
7918;BME280;4004;42.624;23.386;2022-11-03T03:06:16;94691.97;;;14.26;57.50
7918;BME280;4004;42.624;23.386;2022-11-03T03:08:48;94696.66;;;14.29;57.71
7918;BME280;4004;42.624;23.386;2022-11-03T03:11:18;94689.34;;;14.29;57.48
7918;BME280;4004;42.624;23.386;2022-11-03T03:14:02;94687.84;;;14.32;57.98
7918;BME280;4004;42.624;23.386;2022-11-03T03:16:31;94693.25;;;14.32;58.34
7918;BME280;4004;42.624;23.386;2022-11-03T03:19:07;94689.72;;;14.31;58.59
7918;BME280;4004;42.624;23.386;2022-11-03T03:21:42;94685.41;;;14.27;58.83
7918;BME280;4004;42.624;23.386;2022-11-03T03:24:14;94683.53;;;14.27;59.34
7918;BME280;4004;42.624;23.386;2022-11-03T03:26:46;94687.41;;;14.30;59.15
7918;BME280;4004;42.624;23.386;2022-11-03T03:29:19;94679.31;;;14.30;59.22
7918;BME280;4004;42.624;23.386;2022-11-03T03:31:50;94683.97;;;14.33;59.07
7918;BME280;4004;42.624;23.386;2022-11-03T03:34:20;94684.81;;;14.37;59.04
7918;BME280;4004;42.624;23.386;2022-11-03T03:36:48;94680.00;;;14.27;59.86
7918;BME280;4004;42.624;23.386;2022-11-03T03:39:17;94685.13;;;14.32;59.42
7918;BME280;4004;42.624;23.386;2022-11-03T03:41:47;94692.50;;;14.35;59.59
7918;BME280;4004;42.624;23.386;2022-11-03T03:44:14;94693.69;;;14.38;59.75
7918;BME280;4004;42.624;23.386;2022-11-03T03:46:45;94701.44;;;14.39;59.49
7918;BME280;4004;42.624;23.386;2022-11-03T03:49:12;94694.84;;;14.37;59.66
7918;BME280;4004;42.624;23.386;2022-11-03T03:51:40;94695.47;;;14.26;60.16
7918;BME280;4004;42.624;23.386;2022-11-03T03:54:07;94705.88;;;14.24;60.24
7918;BME280;4004;42.624;23.386;2022-11-03T03:56:37;94701.97;;;14.22;60.36
7918;BME280;4004;42.624;23.386;2022-11-03T03:59:07;94702.63;;;14.15;60.18
7918;BME280;4004;42.624;23.386;2022-11-03T04:01:34;94699.88;;;14.12;60.43
7918;BME280;4004;42.624;23.386;2022-11-03T04:04:00;94699.06;;;14.07;60.72
7918;BME280;4004;42.624;23.386;2022-11-03T04:06:27;94700.53;;;14.05;61.35
7918;BME280;4004;42.624;23.386;2022-11-03T04:08:54;94696.41;;;14.11;59.46
7918;BME280;4004;42.624;23.386;2022-11-03T04:11:21;94700.66;;;14.12;58.58
7918;BME280;4004;42.624;23.386;2022-11-03T04:14:05;94704.91;;;13.86;59.75
7918;BME280;4004;42.624;23.386;2022-11-03T04:16:50;94708.38;;;13.87;60.07
7918;BME280;4004;42.624;23.386;2022-11-03T04:19:34;94706.41;;;13.84;61.01
7918;BME280;4004;42.624;23.386;2022-11-03T04:22:18;94712.47;;;13.77;61.62
7918;BME280;4004;42.624;23.386;2022-11-03T04:24:48;94700.38;;;13.71;62.35
7918;BME280;4004;42.624;23.386;2022-11-03T04:27:27;94707.66;;;13.67;64.06
7918;BME280;4004;42.624;23.386;2022-11-03T04:29:56;94699.13;;;13.65;64.89
7918;BME280;4004;42.624;23.386;2022-11-03T04:32:27;94700.69;;;13.66;65.64
7918;BME280;4004;42.624;23.386;2022-11-03T04:34:54;94693.72;;;13.65;65.19
7918;BME280;4004;42.624;23.386;2022-11-03T04:37:21;94697.09;;;13.58;65.38
7918;BME280;4004;42.624;23.386;2022-11-03T04:39:48;94697.09;;;13.58;66.12
7918;BME280;4004;42.624;23.386;2022-11-03T04:42:17;94698.97;;;13.54;66.89
7918;BME280;4004;42.624;23.386;2022-11-03T04:44:44;94696.50;;;13.45;67.32
7918;BME280;4004;42.624;23.386;2022-11-03T04:47:12;94693.72;;;13.42;68.03
7918;BME280;4004;42.624;23.386;2022-11-03T04:49:41;94682.78;;;13.35;68.55
7918;BME280;4004;42.624;23.386;2022-11-03T04:52:13;94697.28;;;13.46;69.96
7918;BME280;4004;42.624;23.386;2022-11-03T04:54:42;94694.91;;;13.44;69.89
7918;BME280;4004;42.624;23.386;2022-11-03T04:57:11;94695.56;;;13.38;69.28
7918;BME280;4004;42.624;23.386;2022-11-03T04:59:39;94695.16;;;13.36;69.12
7918;BME280;4004;42.624;23.386;2022-11-03T05:02:10;94704.16;;;13.24;69.33
7918;BME280;4004;42.624;23.386;2022-11-03T05:04:39;94699.13;;;13.22;69.20
7918;BME280;4004;42.624;23.386;2022-11-03T05:07:21;94695.88;;;13.13;70.06
7918;BME280;4004;42.624;23.386;2022-11-03T05:09:48;94704.75;;;13.14;69.79
7918;BME280;4004;42.624;23.386;2022-11-03T05:12:17;94702.03;;;13.14;70.00
7918;BME280;4004;42.624;23.386;2022-11-03T05:14:44;94695.81;;;13.10;69.84
7918;BME280;4004;42.624;23.386;2022-11-03T05:17:20;94710.22;;;13.17;69.53
7918;BME280;4004;42.624;23.386;2022-11-03T05:19:48;94713.81;;;13.25;69.08
7918;BME280;4004;42.624;23.386;2022-11-03T05:22:19;94708.78;;;13.23;68.83
7918;BME280;4004;42.624;23.386;2022-11-03T05:24:50;94718.44;;;13.24;69.05
7918;BME280;4004;42.624;23.386;2022-11-03T05:27:21;94710.78;;;13.26;68.73
7918;BME280;4004;42.624;23.386;2022-11-03T05:29:50;94721.69;;;13.30;68.64
7918;BME280;4004;42.624;23.386;2022-11-03T05:32:22;94718.88;;;13.46;68.54
7918;BME280;4004;42.624;23.386;2022-11-03T05:34:50;94720.34;;;13.63;68.19
7918;BME280;4004;42.624;23.386;2022-11-03T05:37:27;94731.81;;;13.79;67.67
7918;BME280;4004;42.624;23.386;2022-11-03T05:39:56;94732.09;;;13.97;67.75
7918;BME280;4004;42.624;23.386;2022-11-03T05:42:31;94737.47;;;14.20;66.67
7918;BME280;4004;42.624;23.386;2022-11-03T05:44:59;94735.44;;;14.37;65.07
7918;BME280;4004;42.624;23.386;2022-11-03T05:47:31;94742.47;;;14.45;64.38
7918;BME280;4004;42.624;23.386;2022-11-03T05:50:08;94746.75;;;14.46;64.02
7918;BME280;4004;42.624;23.386;2022-11-03T05:52:37;94748.56;;;14.61;63.33
7918;BME280;4004;42.624;23.386;2022-11-03T05:55:08;94757.44;;;14.88;62.28
7918;BME280;4004;42.624;23.386;2022-11-03T05:57:42;94750.06;;;15.19;61.69
7918;BME280;4004;42.624;23.386;2022-11-03T06:00:23;94753.53;;;15.50;60.32
7918;BME280;4004;42.624;23.386;2022-11-03T06:02:50;94760.41;;;15.78;58.63
7918;BME280;4004;42.624;23.386;2022-11-03T06:05:19;94759.91;;;16.06;56.77
7918;BME280;4004;42.624;23.386;2022-11-03T06:07:48;94748.09;;;16.32;55.63
7918;BME280;4004;42.624;23.386;2022-11-03T06:10:22;94762.66;;;16.61;54.23
7918;BME280;4004;42.624;23.386;2022-11-03T06:12:49;94765.03;;;16.70;52.96
7918;BME280;4004;42.624;23.386;2022-11-03T06:15:30;94771.03;;;17.01;52.38
7918;BME280;4004;42.624;23.386;2022-11-03T06:17:58;94771.56;;;17.31;51.38
7918;BME280;4004;42.624;23.386;2022-11-03T06:20:25;94772.06;;;17.55;50.26
7918;BME280;4004;42.624;23.386;2022-11-03T06:22:55;94778.28;;;17.63;48.93
7918;BME280;4004;42.624;23.386;2022-11-03T06:25:26;94778.66;;;17.57;48.81
7918;BME280;4004;42.624;23.386;2022-11-03T06:27:55;94782.97;;;17.69;48.75
7918;BME280;4004;42.624;23.386;2022-11-03T06:30:26;94781.09;;;17.98;48.14
7918;BME280;4004;42.624;23.386;2022-11-03T06:32:57;94779.94;;;17.96;48.02
7918;BME280;4004;42.624;23.386;2022-11-03T06:35:25;94783.88;;;18.06;48.22
7918;BME280;4004;42.624;23.386;2022-11-03T06:37:52;94790.84;;;18.32;48.20
7918;BME280;4004;42.624;23.386;2022-11-03T06:40:38;94793.59;;;18.60;47.57
7918;BME280;4004;42.624;23.386;2022-11-03T06:43:18;94797.47;;;18.84;47.13
7918;BME280;4004;42.624;23.386;2022-11-03T06:45:49;94797.44;;;19.17;46.06
7918;BME280;4004;42.624;23.386;2022-11-03T06:48:22;94797.69;;;19.51;45.54
7918;BME280;4004;42.624;23.386;2022-11-03T06:50:50;94803.75;;;19.91;45.13
7918;BME280;4004;42.624;23.386;2022-11-03T06:53:20;94794.56;;;20.30;44.79
7918;BME280;4004;42.624;23.386;2022-11-03T06:55:48;94800.06;;;20.75;44.10
7918;BME280;4004;42.624;23.386;2022-11-03T06:58:22;94795.19;;;20.97;43.91
7918;BME280;4004;42.624;23.386;2022-11-03T07:00:50;94792.06;;;21.33;43.58
7918;BME280;4004;42.624;23.386;2022-11-03T07:03:22;94795.47;;;21.48;42.96
7918;BME280;4004;42.624;23.386;2022-11-03T07:05:49;94790.56;;;21.63;42.37
7918;BME280;4004;42.624;23.386;2022-11-03T07:08:24;94790.50;;;21.70;42.17
7918;BME280;4004;42.624;23.386;2022-11-03T07:10:59;94786.72;;;21.87;42.06
7918;BME280;4004;42.624;23.386;2022-11-03T07:13:28;94790.56;;;21.93;41.79
7918;BME280;4004;42.624;23.386;2022-11-03T07:15:55;94787.16;;;22.13;41.75
7918;BME280;4004;42.624;23.386;2022-11-03T07:18:25;94792.53;;;22.20;41.39
7918;BME280;4004;42.624;23.386;2022-11-03T07:20:53;94790.75;;;22.10;41.48
7918;BME280;4004;42.624;23.386;2022-11-03T07:23:23;94781.34;;;21.80;41.65
7918;BME280;4004;42.624;23.386;2022-11-03T07:25:51;94789.94;;;21.51;42.25
7918;BME280;4004;42.624;23.386;2022-11-03T07:28:22;94783.97;;;21.22;42.83
7918;BME280;4004;42.624;23.386;2022-11-03T07:30:49;94777.59;;;20.98;43.23
7918;BME280;4004;42.624;23.386;2022-11-03T07:33:20;94786.06;;;21.11;43.15
7918;BME280;4004;42.624;23.386;2022-11-03T07:35:48;94781.63;;;21.24;42.87
7918;BME280;4004;42.624;23.386;2022-11-03T07:38:19;94777.78;;;20.80;43.83
7918;BME280;4004;42.624;23.386;2022-11-03T07:40:47;94782.69;;;20.47;44.09
7918;BME280;4004;42.624;23.386;2022-11-03T07:43:17;94773.88;;;20.33;44.64
7918;BME280;4004;42.624;23.386;2022-11-03T07:45:48;94775.75;;;20.88;43.70
7918;BME280;4004;42.624;23.386;2022-11-03T07:48:21;94776.50;;;21.30;42.92
7918;BME280;4004;42.624;23.386;2022-11-03T07:50:49;94772.97;;;21.29;42.70
7918;BME280;4004;42.624;23.386;2022-11-03T07:53:19;94773.44;;;21.21;42.59
7918;BME280;4004;42.624;23.386;2022-11-03T07:55:47;94775.81;;;20.81;43.19
7918;BME280;4004;42.624;23.386;2022-11-03T07:58:21;94766.41;;;20.85;43.35
7918;BME280;4004;42.624;23.386;2022-11-03T08:00:53;94776.31;;;21.10;42.60
7918;BME280;4004;42.624;23.386;2022-11-03T08:03:35;94777.13;;;21.07;42.66
7918;BME280;4004;42.624;23.386;2022-11-03T08:06:05;94771.31;;;20.56;43.72
7918;BME280;4004;42.624;23.386;2022-11-03T08:08:31;94761.59;;;20.52;43.99
7918;BME280;4004;42.624;23.386;2022-11-03T08:10:58;94757.88;;;20.80;43.52
7918;BME280;4004;42.624;23.386;2022-11-03T08:13:25;94756.88;;;21.01;43.22
7918;BME280;4004;42.624;23.386;2022-11-03T08:15:53;94750.91;;;21.09;43.03
7918;BME280;4004;42.624;23.386;2022-11-03T08:18:20;94750.81;;;20.82;43.40
7918;BME280;4004;42.624;23.386;2022-11-03T08:20:47;94751.44;;;20.59;43.64
7918;BME280;4004;42.624;23.386;2022-11-03T08:23:14;94743.59;;;20.09;44.73
7918;BME280;4004;42.624;23.386;2022-11-03T08:25:41;94748.53;;;19.73;45.67
7918;BME280;4004;42.624;23.386;2022-11-03T08:28:08;94752.53;;;19.43;46.32
7918;BME280;4004;42.624;23.386;2022-11-03T08:30:34;94751.75;;;19.42;46.44
7918;BME280;4004;42.624;23.386;2022-11-03T08:33:02;94748.34;;;19.20;47.39
7918;BME280;4004;42.624;23.386;2022-11-03T08:35:29;94748.75;;;19.15;47.64
7918;BME280;4004;42.624;23.386;2022-11-03T08:37:56;94737.47;;;19.13;47.63
7918;BME280;4004;42.624;23.386;2022-11-03T08:40:23;94742.56;;;19.08;47.65
7918;BME280;4004;42.624;23.386;2022-11-03T08:42:50;94752.31;;;18.98;48.24
7918;BME280;4004;42.624;23.386;2022-11-03T08:45:16;94737.13;;;18.93;48.33
7918;BME280;4004;42.624;23.386;2022-11-03T08:47:43;94739.06;;;18.96;48.24
7918;BME280;4004;42.624;23.386;2022-11-03T08:50:12;94741.44;;;18.91;48.60
7918;BME280;4004;42.624;23.386;2022-11-03T08:52:38;94740.28;;;18.88;48.50
7918;BME280;4004;42.624;23.386;2022-11-03T08:55:06;94744.19;;;18.80;48.80
7918;BME280;4004;42.624;23.386;2022-11-03T08:57:33;94746.91;;;18.80;49.28
7918;BME280;4004;42.624;23.386;2022-11-03T08:59:59;94742.66;;;18.50;49.96
7918;BME280;4004;42.624;23.386;2022-11-03T09:02:26;94740.31;;;18.38;50.54
7918;BME280;4004;42.624;23.386;2022-11-03T09:04:53;94741.88;;;18.35;50.97
7918;BME280;4004;42.624;23.386;2022-11-03T09:07:21;94731.38;;;18.44;50.40
7918;BME280;4004;42.624;23.386;2022-11-03T09:09:48;94732.53;;;18.51;50.11
7918;BME280;4004;42.624;23.386;2022-11-03T09:12:14;94736.03;;;18.66;49.86
7918;BME280;4004;42.624;23.386;2022-11-03T09:14:41;94722.00;;;18.78;49.75
7918;BME280;4004;42.624;23.386;2022-11-03T09:17:08;94731.31;;;18.84;49.69
7918;BME280;4004;42.624;23.386;2022-11-03T09:19:34;94726.22;;;19.00;49.38
7918;BME280;4004;42.624;23.386;2022-11-03T09:22:01;94722.25;;;19.16;48.98
7918;BME280;4004;42.624;23.386;2022-11-03T09:24:29;94719.88;;;19.25;48.51
7918;BME280;4004;42.624;23.386;2022-11-03T09:26:56;94722.59;;;19.29;48.77
7918;BME280;4004;42.624;23.386;2022-11-03T09:29:23;94711.38;;;19.16;49.33
7918;BME280;4004;42.624;23.386;2022-11-03T09:31:50;94709.78;;;19.18;48.99
7918;BME280;4004;42.624;23.386;2022-11-03T09:34:17;94706.78;;;18.91;50.07
7918;BME280;4004;42.624;23.386;2022-11-03T09:36:43;94708.75;;;18.83;50.60
7918;BME280;4004;42.624;23.386;2022-11-03T09:39:10;94709.88;;;19.00;50.39
7918;BME280;4004;42.624;23.386;2022-11-03T09:41:38;94690.44;;;18.91;50.83
7918;BME280;4004;42.624;23.386;2022-11-03T09:44:05;94690.88;;;18.79;50.91
7918;BME280;4004;42.624;23.386;2022-11-03T09:46:32;94694.38;;;18.65;51.44
7918;BME280;4004;42.624;23.386;2022-11-03T09:49:01;94687.41;;;18.57;51.85
7918;BME280;4004;42.624;23.386;2022-11-03T09:51:29;94690.09;;;18.60;51.54
7918;BME280;4004;42.624;23.386;2022-11-03T09:53:57;94680.41;;;18.52;52.04
7918;BME280;4004;42.624;23.386;2022-11-03T09:56:27;94680.41;;;18.52;52.26
7918;BME280;4004;42.624;23.386;2022-11-03T09:58:56;94678.84;;;18.51;52.25
7918;BME280;4004;42.624;23.386;2022-11-03T10:01:22;94668.69;;;18.62;51.68
7918;BME280;4004;42.624;23.386;2022-11-03T10:03:49;94675.69;;;18.67;51.38
7918;BME280;4004;42.624;23.386;2022-11-03T10:06:16;94663.22;;;18.70;50.83
7918;BME280;4004;42.624;23.386;2022-11-03T10:08:46;94665.56;;;18.82;50.60
7918;BME280;4004;42.624;23.386;2022-11-03T10:11:13;94658.13;;;18.90;49.33
7918;BME280;4004;42.624;23.386;2022-11-03T10:13:42;94654.97;;;18.98;49.07
7918;BME280;4004;42.624;23.386;2022-11-03T10:16:14;94647.13;;;19.15;48.48
7918;BME280;4004;42.624;23.386;2022-11-03T10:18:42;94646.72;;;19.20;48.36
7918;BME280;4004;42.624;23.386;2022-11-03T10:21:14;94645.88;;;19.30;47.54
7918;BME280;4004;42.624;23.386;2022-11-03T10:23:41;94632.63;;;19.32;47.04
7918;BME280;4004;42.624;23.386;2022-11-03T10:26:09;94617.44;;;19.31;46.07
7918;BME280;4004;42.624;23.386;2022-11-03T10:28:37;94633.31;;;19.47;44.91
7918;BME280;4004;42.624;23.386;2022-11-03T10:31:06;94625.19;;;19.36;45.17
7918;BME280;4004;42.624;23.386;2022-11-03T10:33:37;94622.13;;;19.27;45.26
7918;BME280;4004;42.624;23.386;2022-11-03T10:36:21;94619.41;;;19.27;44.18
7918;BME280;4004;42.624;23.386;2022-11-03T10:38:48;94606.97;;;19.26;43.89
7918;BME280;4004;42.624;23.386;2022-11-03T10:41:16;94614.63;;;19.45;42.94
7918;BME280;4004;42.624;23.386;2022-11-03T10:43:54;94613.81;;;19.49;43.49
7918;BME280;4004;42.624;23.386;2022-11-03T10:46:24;94604.56;;;19.35;43.75
7918;BME280;4004;42.624;23.386;2022-11-03T10:49:01;94596.44;;;19.28;43.53
7918;BME280;4004;42.624;23.386;2022-11-03T10:51:31;94598.34;;;19.31;42.91
7918;BME280;4004;42.624;23.386;2022-11-03T10:53:58;94592.91;;;19.31;42.07
7918;BME280;4004;42.624;23.386;2022-11-03T10:56:25;94583.06;;;19.44;41.38
7918;BME280;4004;42.624;23.386;2022-11-03T10:58:52;94588.06;;;19.53;41.13
7918;BME280;4004;42.624;23.386;2022-11-03T11:01:19;94584.97;;;19.55;41.97
7918;BME280;4004;42.624;23.386;2022-11-03T11:03:46;94577.47;;;19.66;42.00
7918;BME280;4004;42.624;23.386;2022-11-03T11:06:22;94570.91;;;19.56;42.27
7918;BME280;4004;42.624;23.386;2022-11-03T11:08:51;94571.25;;;19.65;42.12
7918;BME280;4004;42.624;23.386;2022-11-03T11:11:22;94563.03;;;19.69;42.14
7918;BME280;4004;42.624;23.386;2022-11-03T11:14:22;94559.97;;;19.60;40.97
7918;BME280;4004;42.624;23.386;2022-11-03T11:17:02;94562.63;;;19.67;39.98
7918;BME280;4004;42.624;23.386;2022-11-03T11:19:29;94562.72;;;19.56;39.43
7918;BME280;4004;42.624;23.386;2022-11-03T11:22:21;94550.75;;;19.43;39.45
7918;BME280;4004;42.624;23.386;2022-11-03T11:24:55;94539.91;;;19.36;40.02
7918;BME280;4004;42.624;23.386;2022-11-03T11:27:54;94553.06;;;19.48;40.11
7918;BME280;4004;42.624;23.386;2022-11-03T11:33:32;94538.91;;;19.60;40.19
7918;BME280;4004;42.624;23.386;2022-11-03T11:36:17;94536.94;;;19.64;39.70
7918;BME280;4004;42.624;23.386;2022-11-03T11:38:56;94544.31;;;19.75;39.33
7918;BME280;4004;42.624;23.386;2022-11-03T11:44:51;94508.53;;;19.62;38.86
7918;BME280;4004;42.624;23.386;2022-11-03T11:47:30;94516.97;;;19.78;38.56
7918;BME280;4004;42.624;23.386;2022-11-03T11:50:29;94523.91;;;19.86;38.51
7918;BME280;4004;42.624;23.386;2022-11-03T11:53:03;94519.31;;;19.80;38.71
7918;BME280;4004;42.624;23.386;2022-11-03T11:55:40;94512.25;;;19.82;38.78
7918;BME280;4004;42.624;23.386;2022-11-03T11:58:24;94509.25;;;19.70;39.42
7918;BME280;4004;42.624;23.386;2022-11-03T12:00:57;94506.88;;;19.75;39.41
7918;BME280;4004;42.624;23.386;2022-11-03T12:03:30;94496.66;;;19.83;39.46
7918;BME280;4004;42.624;23.386;2022-11-03T12:05:57;94502.09;;;19.83;39.87
7918;BME280;4004;42.624;23.386;2022-11-03T12:08:26;94493.91;;;19.86;40.59
7918;BME280;4004;42.624;23.386;2022-11-03T12:11:00;94492.38;;;19.85;40.76
7918;BME280;4004;42.624;23.386;2022-11-03T12:13:45;94488.81;;;19.88;40.80
7918;BME280;4004;42.624;23.386;2022-11-03T12:16:33;94486.84;;;19.89;40.85
7918;BME280;4004;42.624;23.386;2022-11-03T12:19:35;94487.25;;;19.87;41.10
7918;BME280;4004;42.624;23.386;2022-11-03T12:22:02;94485.72;;;19.86;40.86
7918;BME280;4004;42.624;23.386;2022-11-03T12:24:35;94484.09;;;19.93;40.45
7918;BME280;4004;42.624;23.386;2022-11-03T12:27:18;94486.47;;;19.87;40.23
7918;BME280;4004;42.624;23.386;2022-11-03T12:29:45;94484.13;;;19.89;39.79
7918;BME280;4004;42.624;23.386;2022-11-03T12:32:12;94475.63;;;19.83;39.71
7918;BME280;4004;42.624;23.386;2022-11-03T12:34:39;94473.28;;;19.82;39.65
7918;BME280;4004;42.624;23.386;2022-11-03T12:37:06;94480.28;;;19.83;39.65
7918;BME280;4004;42.624;23.386;2022-11-03T12:39:33;94465.09;;;19.82;39.75
7918;BME280;4004;42.624;23.386;2022-11-03T12:42:00;94476.00;;;19.85;39.66
7918;BME280;4004;42.624;23.386;2022-11-03T12:44:28;94468.69;;;19.75;39.71
7918;BME280;4004;42.624;23.386;2022-11-03T12:46:55;94464.44;;;19.71;39.85
7918;BME280;4004;42.624;23.386;2022-11-03T12:49:22;94460.09;;;19.77;39.56
7918;BME280;4004;42.624;23.386;2022-11-03T12:51:48;94462.41;;;19.78;39.70
7918;BME280;4004;42.624;23.386;2022-11-03T12:54:15;94455.72;;;19.83;39.86
7918;BME280;4004;42.624;23.386;2022-11-03T12:56:42;94458.41;;;19.90;39.54
7918;BME280;4004;42.624;23.386;2022-11-03T12:59:09;94453.34;;;19.88;39.40
7918;BME280;4004;42.624;23.386;2022-11-03T13:01:37;94457.69;;;19.82;39.52
7918;BME280;4004;42.624;23.386;2022-11-03T13:04:04;94449.97;;;19.77;39.14
7918;BME280;4004;42.624;23.386;2022-11-03T13:06:31;94444.06;;;19.82;39.10
7918;BME280;4004;42.624;23.386;2022-11-03T13:08:58;94447.91;;;19.85;39.39
7918;BME280;4004;42.624;23.386;2022-11-03T13:11:24;94443.69;;;19.80;39.02
7918;BME280;4004;42.624;23.386;2022-11-03T13:14:05;94446.78;;;19.82;38.92
7918;BME280;4004;42.624;23.386;2022-11-03T13:16:32;94445.97;;;19.85;39.09
7918;BME280;4004;42.624;23.386;2022-11-03T13:19:00;94440.06;;;19.91;38.79
7918;BME280;4004;42.624;23.386;2022-11-03T13:21:27;94435.84;;;19.86;39.32
7918;BME280;4004;42.624;23.386;2022-11-03T13:23:53;94445.56;;;19.87;39.06
7918;BME280;4004;42.624;23.386;2022-11-03T13:26:20;94440.16;;;19.83;39.02
7918;BME280;4004;42.624;23.386;2022-11-03T13:28:47;94437.75;;;19.89;38.99
7918;BME280;4004;42.624;23.386;2022-11-03T13:31:14;94435.19;;;19.75;39.11
7918;BME280;4004;42.624;23.386;2022-11-03T13:33:40;94437.81;;;19.82;39.05